createdAt,value
2019-05-03T00:01:16.514Z,5.83
2019-05-03T00:03:42.592Z,5.33
2019-05-03T00:06:08.739Z,5.93
2019-05-03T00:08:34.720Z,4.60
2019-05-03T00:11:02.307Z,5.30
2019-05-03T00:13:28.683Z,5.70
2019-05-03T00:16:12.241Z,4.97
2019-05-03T00:18:38.442Z,5.27
2019-05-03T00:21:04.714Z,5.37
2019-05-03T00:23:32.449Z,5.20
2019-05-03T00:25:58.834Z,6.17
2019-05-03T00:28:24.907Z,5.03
2019-05-03T00:30:51.879Z,4.37
2019-05-03T00:33:18.238Z,5.23
2019-05-03T00:36:02.991Z,4.57
2019-05-03T00:38:30.003Z,5.20
2019-05-03T00:40:56.119Z,4.87
2019-05-03T00:43:22.313Z,5.17
2019-05-03T00:45:48.382Z,5.20
2019-05-03T00:48:14.371Z,5.17
2019-05-03T00:50:42.455Z,5.03
2019-05-03T00:53:08.418Z,4.40
2019-05-03T00:55:34.415Z,4.10
2019-05-03T00:58:02.333Z,4.37
2019-05-03T01:00:28.567Z,4.47
2019-05-03T01:02:54.582Z,5.30
2019-05-03T01:05:22.494Z,4.60
2019-05-03T01:07:48.548Z,3.87
2019-05-03T01:10:14.666Z,4.43
2019-05-03T01:12:41.661Z,4.33
2019-05-03T01:15:12.325Z,3.80
2019-05-03T01:17:38.459Z,4.70
2019-05-03T01:20:05.701Z,5.20
2019-05-03T01:22:32.229Z,4.77
2019-05-03T01:24:58.474Z,4.87
2019-05-03T01:27:24.602Z,3.93
2019-05-03T01:29:51.992Z,4.20
2019-05-03T01:32:18.133Z,4.00
2019-05-03T01:34:44.153Z,3.87
2019-05-03T01:37:11.938Z,4.70
2019-05-03T01:39:38.081Z,4.03
2019-05-03T01:42:04.180Z,4.63
2019-05-03T01:44:30.094Z,3.83
2019-05-03T01:46:57.903Z,3.93
2019-05-03T01:49:37.926Z,4.00
2019-05-03T01:52:05.733Z,4.87
2019-05-03T01:54:32.165Z,5.33
2019-05-03T01:56:59.206Z,4.60
2019-05-03T01:59:25.288Z,4.60
2019-05-03T02:02:07.958Z,4.57
2019-05-03T02:04:35.770Z,4.67
2019-05-03T02:07:02.280Z,5.03
2019-05-03T02:09:28.773Z,5.03
2019-05-03T02:11:54.676Z,4.57
2019-05-03T02:14:22.196Z,5.03
2019-05-03T02:16:48.186Z,6.47
2019-05-03T02:19:14.280Z,5.07
2019-05-03T02:21:41.681Z,5.30
2019-05-03T02:24:07.867Z,4.60
2019-05-03T02:26:33.892Z,4.70
2019-05-03T02:29:01.726Z,6.07
2019-05-03T02:31:27.896Z,4.60
2019-05-03T02:33:53.892Z,5.53
2019-05-03T02:36:23.030Z,5.87
2019-05-03T02:38:47.750Z,5.17
2019-05-03T02:41:14.593Z,4.63
2019-05-03T02:43:45.555Z,5.47
2019-05-03T02:46:28.245Z,5.37
2019-05-03T02:49:15.378Z,4.90
2019-05-03T02:51:41.436Z,4.90
2019-05-03T02:54:07.329Z,5.60
2019-05-03T02:56:35.258Z,5.57
2019-05-03T02:59:01.144Z,4.87
2019-05-03T03:01:27.843Z,5.13
2019-05-03T03:03:56.015Z,5.57
2019-05-03T03:06:26.544Z,4.67
2019-05-03T03:08:52.572Z,4.90
2019-05-03T03:11:20.373Z,4.43
2019-05-03T03:13:47.088Z,4.43
2019-05-03T03:16:15.216Z,4.97
2019-05-03T03:18:41.131Z,6.00
2019-05-03T03:21:11.241Z,4.90
2019-05-03T03:23:58.711Z,4.73
2019-05-03T03:26:37.223Z,5.90
2019-05-03T03:29:02.042Z,5.70
2019-05-03T03:31:37.811Z,5.50
2019-05-03T03:34:08.351Z,5.60
2019-05-03T03:36:54.494Z,5.43
2019-05-03T03:39:06.278Z,5.43
2019-05-03T03:41:32.613Z,5.80
2019-05-03T03:44:01.502Z,5.77
2019-05-03T03:46:27.663Z,4.63
2019-05-03T03:48:55.855Z,5.60
2019-05-03T03:51:22.526Z,6.47
2019-05-03T03:53:51.993Z,5.77
2019-05-03T03:56:20.041Z,6.57
2019-05-03T03:58:46.613Z,6.60
2019-05-03T04:01:15.534Z,7.90
2019-05-03T04:03:40.980Z,6.53
2019-05-03T04:06:07.532Z,7.73
2019-05-03T04:08:36.124Z,6.77
2019-05-03T04:11:02.740Z,7.07
2019-05-03T04:13:28.912Z,7.20
2019-05-03T04:15:59.815Z,8.30
2019-05-03T04:18:37.252Z,6.17
2019-05-03T04:21:05.559Z,7.07
2019-05-03T04:23:32.178Z,7.20
2019-05-03T04:25:58.502Z,7.53
2019-05-03T04:28:25.692Z,7.70
2019-05-03T04:30:51.720Z,7.50
2019-05-03T04:33:17.635Z,8.27
2019-05-03T04:35:46.304Z,8.00
2019-05-03T04:38:11.345Z,7.97
2019-05-03T04:40:37.297Z,8.10
2019-05-03T04:43:06.077Z,7.20
2019-05-03T04:45:31.890Z,7.67
2019-05-03T04:47:57.940Z,7.57
2019-05-03T04:50:25.507Z,7.30
2019-05-03T04:52:51.824Z,6.60
2019-05-03T04:55:17.903Z,5.30
2019-05-03T04:57:46.799Z,5.40
2019-05-03T05:00:11.973Z,4.93
2019-05-03T05:02:37.910Z,5.53
2019-05-03T05:05:05.974Z,5.23
2019-05-03T05:07:32.048Z,4.80
2019-05-03T05:09:57.916Z,4.47
2019-05-03T05:12:25.244Z,4.27
2019-05-03T05:14:51.348Z,4.67
2019-05-03T05:17:19.112Z,4.87
2019-05-03T05:19:49.667Z,4.40
2019-05-03T05:22:17.528Z,4.27
2019-05-03T05:24:44.991Z,5.00
2019-05-03T05:27:15.705Z,4.47
2019-05-03T05:29:41.558Z,4.17
2019-05-03T05:32:07.422Z,3.90
2019-05-03T05:34:34.918Z,4.33
2019-05-03T05:37:01.010Z,5.33
2019-05-03T05:39:26.867Z,5.50
2019-05-03T05:41:52.717Z,4.20
2019-05-03T05:44:19.598Z,4.40
2019-05-03T05:47:04.706Z,3.60
2019-05-03T05:49:50.428Z,4.85
2019-05-03T05:52:16.278Z,4.05
2019-05-03T05:54:45.564Z,3.77
2019-05-03T05:57:16.392Z,3.90
2019-05-03T05:59:46.686Z,3.30
2019-05-03T06:02:14.947Z,3.73
2019-05-03T06:04:40.524Z,3.33
2019-05-03T06:07:25.047Z,4.10
2019-05-03T06:10:01.951Z,2.80
2019-05-03T06:12:46.175Z,2.97
2019-05-03T06:15:15.020Z,3.37
2019-05-03T06:17:52.008Z,2.60
2019-05-03T06:20:24.469Z,2.63
2019-05-03T06:22:52.261Z,2.27
2019-05-03T06:25:20.023Z,2.63
2019-05-03T06:27:45.887Z,2.87
2019-05-03T06:30:16.520Z,2.60
2019-05-03T06:32:42.390Z,2.30
2019-05-03T06:35:08.561Z,2.20
2019-05-03T06:37:39.202Z,1.60
2019-05-03T06:40:06.159Z,2.77
2019-05-03T06:42:32.345Z,2.20
2019-05-03T06:45:05.869Z,2.00
2019-05-03T06:47:28.527Z,2.53
2019-05-03T06:49:55.229Z,1.90
2019-05-03T06:52:27.558Z,2.17
2019-05-03T06:54:49.013Z,1.83
2019-05-03T06:57:16.579Z,1.70
2019-05-03T06:59:45.159Z,2.37
2019-05-03T07:02:29.408Z,2.33
2019-05-03T07:04:57.165Z,2.13
2019-05-03T07:07:27.913Z,3.00
2019-05-03T07:10:11.819Z,1.97
2019-05-03T07:12:56.352Z,2.70
2019-05-03T07:15:22.215Z,3.20
2019-05-03T07:17:48.076Z,2.17
2019-05-03T07:20:14.836Z,2.40
2019-05-03T07:22:40.707Z,2.17
2019-05-03T07:25:06.693Z,2.20
2019-05-03T07:27:32.543Z,2.07
2019-05-03T07:29:58.426Z,2.60
2019-05-03T07:32:24.793Z,2.27
2019-05-03T07:34:50.879Z,2.30
2019-05-03T07:37:16.802Z,2.17
2019-05-03T07:39:42.664Z,1.73
2019-05-03T07:42:08.542Z,1.80
2019-05-03T07:44:34.912Z,1.40
2019-05-03T07:47:01.750Z,1.93
2019-05-03T07:49:27.765Z,1.77
2019-05-03T07:51:55.321Z,1.77
2019-05-03T07:54:21.385Z,2.40
2019-05-03T07:56:57.985Z,1.77
2019-05-03T07:59:25.096Z,1.53
2019-05-03T08:01:54.625Z,1.73
2019-05-03T08:04:20.630Z,1.70
2019-05-03T08:06:46.485Z,1.93
2019-05-03T08:09:12.348Z,2.10
2019-05-03T08:11:38.217Z,1.93
2019-05-03T08:14:05.029Z,1.87
2019-05-03T08:16:30.937Z,1.20
2019-05-03T08:18:56.823Z,1.60
2019-05-03T08:21:22.699Z,1.53
2019-05-03T08:23:48.582Z,1.63
2019-05-03T08:26:15.282Z,1.13
2019-05-03T08:28:41.387Z,1.50
2019-05-03T08:31:26.554Z,1.10
2019-05-03T08:34:06.199Z,1.70
2019-05-03T08:36:50.849Z,1.70
2019-05-03T08:39:16.753Z,2.13
2019-05-03T08:41:44.511Z,1.60
2019-05-03T08:44:10.361Z,1.60
2019-05-03T08:46:36.239Z,2.33
2019-05-03T08:49:02.195Z,1.97
2019-05-03T08:51:28.070Z,1.80
2019-05-03T08:53:55.966Z,2.00
2019-05-03T08:56:21.693Z,1.90
2019-05-03T08:58:47.540Z,1.90
2019-05-03T09:01:14.768Z,1.83
2019-05-03T09:03:40.861Z,1.77
2019-05-03T09:06:06.725Z,1.63
2019-05-03T09:08:35.106Z,2.17
2019-05-03T09:11:02.243Z,2.00
2019-05-03T09:13:47.933Z,2.10
2019-05-03T09:16:14.743Z,1.85
2019-05-03T09:18:40.823Z,1.40
2019-05-03T09:21:06.686Z,1.50
2019-05-03T09:23:32.549Z,1.30
2019-05-03T09:25:58.396Z,1.13
2019-05-03T09:28:26.474Z,1.07
2019-05-03T09:30:52.035Z,1.60
2019-05-03T09:33:18.179Z,1.10
2019-05-03T09:35:45.735Z,1.50
2019-05-03T09:38:11.785Z,1.23
2019-05-03T09:40:37.695Z,1.10
2019-05-03T09:43:04.555Z,1.40
2019-05-03T09:45:30.605Z,1.57
2019-05-03T09:47:56.505Z,1.30
2019-05-03T09:50:22.408Z,1.20
2019-05-03T09:52:48.296Z,1.20
2019-05-03T09:55:16.041Z,1.30
2019-05-03T10:00:17.936Z,1.35
2019-05-03T10:02:45.026Z,1.60
2019-05-03T10:05:11.458Z,1.80
2019-05-03T10:07:37.311Z,1.30
2019-05-03T10:10:06.894Z,1.50
2019-05-03T10:12:32.830Z,1.73
2019-05-03T10:14:58.684Z,1.53
2019-05-03T10:17:35.360Z,1.70
2019-05-03T10:20:03.158Z,1.60
2019-05-03T10:22:29.015Z,1.37
2019-05-03T10:24:55.098Z,1.60
2019-05-03T10:27:20.967Z,1.50
2019-05-03T10:29:46.823Z,1.73
2019-05-03T10:32:31.115Z,1.60
2019-05-03T10:35:01.682Z,1.60
2019-05-03T10:37:31.324Z,1.20
2019-05-03T10:40:01.264Z,1.80
2019-05-03T10:42:27.113Z,1.63
2019-05-03T10:44:55.432Z,1.70
2019-05-03T10:47:20.750Z,1.37
2019-05-03T10:49:46.622Z,1.70
2019-05-03T10:52:15.027Z,1.10
2019-05-03T10:54:40.926Z,1.20
2019-05-03T10:57:08.690Z,1.40
2019-05-03T10:59:35.584Z,1.50
2019-05-03T11:02:12.766Z,1.33
2019-05-03T11:04:38.633Z,1.80
2019-05-03T11:07:05.479Z,1.63
2019-05-03T11:09:31.566Z,1.50
2019-05-03T11:11:59.335Z,1.20
2019-05-03T11:14:25.561Z,1.60
2019-05-03T11:16:51.482Z,1.60
2019-05-03T11:19:17.345Z,1.23
2019-05-03T11:21:45.315Z,1.70
2019-05-03T11:24:10.951Z,1.40
2019-05-03T11:26:37.128Z,1.37
2019-05-03T11:29:05.011Z,1.47
2019-05-03T11:31:47.976Z,1.47
2019-05-03T11:34:32.423Z,1.50
2019-05-03T11:37:16.916Z,1.73
2019-05-03T11:39:45.080Z,1.60
2019-05-03T11:42:10.654Z,1.47
2019-05-03T11:44:39.365Z,1.73
2019-05-03T11:47:06.928Z,1.53
2019-05-03T11:49:34.495Z,1.70
2019-05-03T11:52:00.544Z,2.57
2019-05-03T11:54:26.416Z,1.60
2019-05-03T11:56:52.565Z,1.70
2019-05-03T11:59:18.423Z,1.70
2019-05-03T12:02:04.859Z,1.90
2019-05-03T12:04:31.232Z,1.47
2019-05-03T12:06:57.228Z,1.83
2019-05-03T12:09:23.102Z,1.77
2019-05-03T12:11:48.965Z,1.70
2019-05-03T12:14:15.497Z,1.70
2019-05-03T12:17:17.294Z,2.67
2019-05-03T12:19:18.062Z,2.10
2019-05-03T12:21:41.947Z,1.73
2019-05-03T12:24:08.896Z,1.90
2019-05-03T12:26:43.469Z,1.83
2019-05-03T12:29:08.799Z,1.87
2019-05-03T12:31:40.233Z,1.83
2019-05-03T12:34:02.742Z,1.80
2019-05-03T12:36:28.600Z,1.70
2019-05-03T12:38:54.880Z,1.87
2019-05-03T12:41:20.817Z,1.40
2019-05-03T12:43:46.676Z,2.20
2019-05-03T12:46:12.547Z,2.03
2019-05-03T12:48:38.389Z,1.37
2019-05-03T12:51:06.420Z,2.07
2019-05-03T12:53:32.817Z,1.47
2019-05-03T12:55:58.697Z,2.13
2019-05-03T12:58:26.465Z,1.30
2019-05-03T13:00:55.670Z,1.67
2019-05-03T13:03:29.245Z,1.90
2019-05-03T13:05:55.601Z,1.80
2019-05-03T13:08:30.503Z,1.63
2019-05-03T13:10:56.369Z,1.60
2019-05-03T13:13:22.226Z,2.00
2019-05-03T13:15:48.077Z,1.70
2019-05-03T13:18:15.699Z,1.67
2019-05-03T13:20:41.709Z,1.50
2019-05-03T13:23:07.581Z,1.47
2019-05-03T13:25:35.478Z,2.37
2019-05-03T13:28:01.202Z,2.57
2019-05-03T13:30:27.068Z,1.50
2019-05-03T13:32:54.803Z,1.43
2019-05-03T13:35:20.710Z,2.00
2019-05-03T13:37:46.579Z,1.80
2019-05-03T13:40:12.548Z,1.70
2019-05-03T13:42:38.406Z,1.23
2019-05-03T13:45:05.666Z,2.53
2019-05-03T13:47:31.533Z,1.50
2019-05-03T13:49:57.392Z,2.00
2019-05-03T13:52:25.095Z,2.30
2019-05-03T13:54:51.020Z,2.20
2019-05-03T13:57:16.891Z,2.10
2019-05-03T13:59:44.693Z,2.10
2019-05-03T14:02:15.308Z,1.73
2019-05-03T14:04:49.443Z,2.10
2019-05-03T14:07:06.030Z,2.10
2019-05-03T14:09:32.109Z,2.60
2019-05-03T14:11:58.052Z,2.90
2019-05-03T14:14:25.711Z,3.07
2019-05-03T14:16:51.675Z,3.17
2019-05-03T14:19:25.347Z,2.50
2019-05-03T14:21:55.786Z,1.97
2019-05-03T14:24:21.617Z,2.20
2019-05-03T14:26:47.473Z,2.40
2019-05-03T14:29:14.868Z,2.57
2019-05-03T14:31:41.056Z,2.80
2019-05-03T14:34:06.930Z,2.53
2019-05-03T14:36:32.774Z,2.60
2019-05-03T14:38:58.643Z,3.10
2019-05-03T14:41:25.402Z,2.50
2019-05-03T14:43:51.565Z,2.40
2019-05-03T14:46:29.205Z,2.73
2019-05-03T14:48:45.825Z,2.63
2019-05-03T14:51:11.882Z,2.27
2019-05-03T14:53:37.884Z,2.93
2019-05-03T14:56:07.855Z,3.57
2019-05-03T14:58:41.490Z,2.73
2019-05-03T15:01:18.344Z,2.63
2019-05-03T15:03:44.196Z,3.17
2019-05-03T15:06:10.050Z,3.03
2019-05-03T15:08:35.944Z,2.90
2019-05-03T15:11:01.919Z,2.57
2019-05-03T15:13:27.755Z,3.40
2019-05-03T15:15:54.678Z,3.17
2019-05-03T15:18:20.793Z,2.53
2019-05-03T15:20:46.638Z,3.47
2019-05-03T15:23:14.705Z,3.10
2019-05-03T15:25:40.873Z,2.70
2019-05-03T15:28:06.786Z,2.60
2019-05-03T15:30:32.641Z,2.80
2019-05-03T15:33:00.906Z,2.90
2019-05-03T15:35:26.280Z,3.03
2019-05-03T15:37:52.131Z,2.90
2019-05-03T15:40:18.000Z,3.17
2019-05-03T15:42:45.772Z,3.20
2019-05-03T15:48:35.154Z,3.93
2019-05-03T15:51:01.147Z,3.37
2019-05-03T15:53:27.002Z,3.83
2019-05-03T15:55:54.843Z,3.40
2019-05-03T15:58:20.610Z,3.33
2019-05-03T16:00:46.800Z,3.63
2019-05-03T16:03:14.430Z,3.37
2019-05-03T16:05:40.418Z,4.00
2019-05-03T16:08:06.269Z,4.10
2019-05-03T16:10:32.137Z,4.00
2019-05-03T16:12:57.989Z,3.67
2019-05-03T16:15:24.620Z,3.63
2019-05-03T16:17:50.641Z,3.43
2019-05-03T16:20:16.515Z,3.57
2019-05-03T16:22:42.392Z,3.70
2019-05-03T16:25:09.082Z,4.20
2019-05-03T16:27:36.838Z,3.23
2019-05-03T16:30:07.599Z,3.60
2019-05-03T16:32:34.669Z,3.50
2019-05-03T16:35:01.226Z,3.23
2019-05-03T16:37:27.098Z,3.40
2019-05-03T16:39:55.044Z,3.43
2019-05-03T16:42:20.716Z,3.33
2019-05-03T16:44:46.585Z,3.30
2019-05-03T16:47:12.464Z,3.23
2019-05-03T16:49:38.556Z,2.83
2019-05-03T16:52:05.635Z,3.10
2019-05-03T16:54:31.582Z,2.43
2019-05-03T16:56:57.442Z,2.80
2019-05-03T16:59:24.745Z,2.57
2019-05-03T17:01:50.770Z,2.60
2019-05-03T17:04:27.696Z,2.80
2019-05-03T17:07:10.710Z,2.63
2019-05-03T17:09:50.411Z,2.40
2019-05-03T17:12:30.261Z,2.13
2019-05-03T17:14:56.992Z,2.43
2019-05-03T17:17:25.112Z,2.37
2019-05-03T17:19:50.831Z,2.00
2019-05-03T17:22:17.414Z,2.67
2019-05-03T17:24:44.474Z,2.47
2019-05-03T17:27:10.329Z,3.97
2019-05-03T17:29:36.221Z,2.90
2019-05-03T17:32:02.085Z,2.53
2019-05-03T17:34:27.943Z,2.23
2019-05-03T17:36:54.456Z,1.93
2019-05-03T17:39:38.836Z,2.03
2019-05-03T17:42:15.814Z,1.93
2019-05-03T17:44:46.473Z,1.50
2019-05-03T17:47:12.320Z,1.70
2019-05-03T17:49:38.202Z,2.37
2019-05-03T17:52:06.001Z,2.10
2019-05-03T17:54:35.663Z,1.77
2019-05-03T17:57:21.669Z,2.10
2019-05-03T18:02:37.065Z,1.80
2019-05-03T18:05:22.816Z,1.50
2019-05-03T18:07:56.674Z,1.72
2019-05-03T18:10:24.375Z,2.30
2019-05-03T18:12:50.299Z,2.20
2019-05-03T18:15:16.156Z,2.10
2019-05-03T18:17:42.011Z,2.50
2019-05-03T18:20:08.068Z,2.10
2019-05-03T18:22:33.932Z,2.43
2019-05-03T18:24:59.785Z,1.90
2019-05-03T18:27:25.651Z,2.13
2019-05-03T18:29:51.515Z,2.40
2019-05-03T18:32:17.380Z,2.50
2019-05-03T18:34:45.183Z,2.27
2019-05-03T18:37:11.014Z,2.60
2019-05-03T18:39:36.874Z,2.37
2019-05-03T18:42:04.967Z,3.50
2019-05-03T18:44:34.557Z,3.30
2019-05-03T18:47:05.477Z,3.37
2019-05-03T18:49:31.445Z,2.50
2019-05-03T18:51:57.337Z,2.93
2019-05-03T18:54:24.607Z,2.70
2019-05-03T18:56:50.640Z,3.13
2019-05-03T18:59:16.502Z,3.80
2019-05-03T19:01:45.038Z,4.43
2019-05-03T19:04:14.715Z,2.90
2019-05-03T19:06:40.859Z,2.47
2019-05-03T19:09:11.388Z,2.40
2019-05-03T19:11:39.141Z,2.60
2019-05-03T19:14:09.481Z,2.43
2019-05-03T19:16:45.407Z,1.93
2019-05-03T19:19:12.369Z,2.17
2019-05-03T19:21:38.223Z,2.77
2019-05-03T19:24:04.869Z,2.43
2019-05-03T19:26:31.070Z,2.80
2019-05-03T19:28:56.929Z,2.87
2019-05-03T19:31:25.103Z,2.33
2019-05-03T19:33:51.163Z,2.00
2019-05-03T19:36:17.035Z,2.20
2019-05-03T19:38:42.889Z,2.43
2019-05-03T19:41:08.744Z,2.20
2019-05-03T19:43:35.549Z,2.20
2019-05-03T19:46:01.674Z,2.43
2019-05-03T19:48:27.533Z,2.80
2019-05-03T19:50:54.978Z,2.90
2019-05-03T19:53:28.541Z,2.70
2019-05-03T19:55:55.352Z,2.40
2019-05-03T19:58:21.257Z,1.90
2019-05-03T20:00:49.009Z,2.30
2019-05-03T20:03:35.125Z,2.63
2019-05-03T20:06:04.851Z,2.53
2019-05-03T20:08:41.587Z,2.53
2019-05-03T20:11:17.284Z,2.63
2019-05-03T20:13:45.182Z,2.60
2019-05-03T20:16:11.117Z,2.97
2019-05-03T20:18:36.969Z,2.30
2019-05-03T20:21:04.359Z,2.63
2019-05-03T20:23:30.312Z,3.03
2019-05-03T20:25:56.718Z,2.53
2019-05-03T20:28:24.606Z,2.50
2019-05-03T20:30:50.342Z,2.20
2019-05-03T20:33:16.195Z,2.10
2019-05-03T20:35:42.051Z,2.50
2019-05-03T20:38:07.919Z,2.87
2019-05-03T20:40:35.074Z,2.30
2019-05-03T20:43:05.474Z,2.50
2019-05-03T20:45:36.045Z,2.20
2019-05-03T20:48:02.886Z,2.53
2019-05-03T20:50:28.746Z,2.23
2019-05-03T20:52:55.069Z,2.40
2019-05-03T20:55:21.012Z,1.70
2019-05-03T20:57:46.870Z,2.20
2019-05-03T21:00:17.065Z,2.20
2019-05-03T21:02:51.594Z,2.27
2019-05-03T21:05:24.666Z,2.63
2019-05-03T21:07:40.249Z,2.13
2019-05-03T21:10:07.282Z,2.23
2019-05-03T21:12:34.661Z,2.40
2019-05-03T21:15:01.561Z,2.37
2019-05-03T21:17:35.216Z,2.63
2019-05-03T21:20:02.994Z,2.30
2019-05-03T21:22:30.483Z,2.33
2019-05-03T21:24:58.249Z,2.80
2019-05-03T21:27:24.635Z,3.00
2019-05-03T21:29:51.368Z,2.80
2019-05-03T21:32:17.644Z,2.50
2019-05-03T21:34:45.148Z,3.17
2019-05-03T21:37:11.081Z,2.87
2019-05-03T21:39:36.938Z,2.70
2019-05-03T21:42:04.631Z,2.53
2019-05-03T21:44:31.685Z,2.67
2019-05-03T21:46:59.445Z,2.90
2019-05-03T21:49:27.280Z,2.90
2019-05-03T21:51:53.642Z,2.73
2019-05-03T21:54:20.594Z,2.97
2019-05-03T21:56:46.444Z,2.83
2019-05-03T21:59:12.314Z,2.90
2019-05-03T22:01:40.079Z,3.23
2019-05-03T22:04:05.938Z,3.87
2019-05-03T22:06:31.813Z,3.20
2019-05-03T22:08:58.383Z,3.67
2019-05-03T22:11:25.189Z,3.47
2019-05-03T22:13:54.273Z,3.40
2019-05-03T22:16:24.621Z,3.03
2019-05-03T22:18:50.628Z,4.00
2019-05-03T22:21:27.062Z,4.20
2019-05-03T22:24:09.923Z,3.87
2019-05-03T22:26:54.341Z,3.50
2019-05-03T22:29:20.336Z,3.30
2019-05-03T22:31:46.406Z,3.40
2019-05-03T22:34:12.292Z,3.00
2019-05-03T22:36:38.158Z,2.80
2019-05-03T22:39:05.353Z,3.37
2019-05-03T22:41:31.217Z,3.07
2019-05-03T22:43:57.073Z,2.90
2019-05-03T22:46:24.826Z,3.20
2019-05-03T22:48:50.718Z,3.00
2019-05-03T22:51:16.581Z,2.93
2019-05-03T22:53:42.442Z,3.50
2019-05-03T22:56:08.298Z,3.77
2019-05-03T22:58:35.470Z,3.17
2019-05-03T23:01:01.526Z,3.57
2019-05-03T23:03:29.292Z,3.87
2019-05-03T23:05:55.137Z,3.43
2019-05-03T23:08:21.025Z,3.97
2019-05-03T23:10:46.886Z,3.50
2019-05-03T23:13:12.742Z,4.30
2019-05-03T23:15:38.604Z,3.80
2019-05-03T23:18:04.974Z,3.93
2019-05-03T23:20:34.458Z,4.23
2019-05-03T23:23:00.480Z,4.60
2019-05-03T23:25:26.337Z,4.30
2019-05-03T23:27:52.202Z,4.70
2019-05-03T23:30:18.074Z,3.90
2019-05-03T23:32:45.330Z,4.70
2019-05-03T23:35:11.306Z,3.40
2019-05-03T23:37:37.193Z,3.40
2019-05-03T23:40:06.390Z,3.67
2019-05-03T23:42:32.244Z,3.37
2019-05-03T23:44:58.111Z,3.03
2019-05-03T23:47:31.929Z,2.70
2019-05-03T23:49:57.782Z,3.00
2019-05-03T23:52:25.767Z,3.47
2019-05-03T23:54:52.141Z,3.57
2019-05-03T23:57:18.023Z,3.73
2019-05-03T23:59:44.947Z,3.70
